Terminal Aerodrome Forecast
Issued by NWS

Home | Current Version | Previous Version | Text Only | Print | Product List | Glossary On
Versions: 1 2 3 4 5 6 7 8 9 10 11 12 13 14 15 16 17 18 19 20
000
FTUS44 KLIX 221736
TAFHDC
TAF
KHDC 221736Z 2218/2318 VRB03KT P6SM VCSH SCT015 BKN120
     FM222100 VRB03KT P6SM VCSH BKN020 OVC035
     FM230300 13005KT P6SM SHRA VCTS OVC015CB
     FM230800 19005KT 6SM SHRA VCTS OVC010CB
     FM231300 30004KT 6SM SHRA VCTS OVC015CB
     FM231700 29005KT P6SM SHRA VCTS BKN020CB BKN035=

USA.gov is the U.S. government's official web portal to all federal, state and local government web resources and services.